.
WxDataArchive / Data Records for 2006-12-19
2006-12-18 December 2006 2006-12-20

Data Records for Tuesday, 19 December 2006

Time	Temp	Chill	HIndex	Humid	Dewpt	 Wind 	HiWind	WindDir	Rain 	Barom 
-----	----	-----	------	-----	-----	------	------	-------	-----	----- 
00:00	32.9	32.9	32.9	82	28.0	0	1	338	0.00	30.353 
00:05	32.9	32.9	32.9	82	28.0	0	1	338	0.00	30.353 
00:10	32.9	32.9	32.9	82	28.0	0	1	338	0.00	30.353 
00:15	32.8	32.8	32.8	82	27.9	0	0	---	0.00	30.355 
00:20	32.8	32.8	32.8	82	27.9	0	0	---	0.00	30.355 
00:25	32.7	32.7	32.7	82	27.8	0	1	338	0.00	30.355 
00:30	32.5	32.5	32.5	83	27.9	0	0	---	0.00	30.356 
00:35	32.4	32.4	32.4	83	27.8	0	1	338	0.00	30.356 
00:40	32.4	32.4	32.4	83	27.8	0	1	338	0.00	30.356 
00:45	32.5	32.5	32.5	83	27.9	0	1	338	0.00	30.364 
00:50	32.5	32.5	32.5	83	27.9	0	1	338	0.00	30.364 
00:55	32.5	32.5	32.5	83	27.9	0	1	338	0.00	30.364 
01:00	32.5	32.5	32.5	83	27.9	0	1	338	0.00	30.364 
01:05	32.7	32.7	32.7	83	28.1	0	3	338	0.00	30.364 
01:10	32.7	32.7	32.7	83	28.1	0	3	270	0.00	30.364 
01:15	32.7	32.7	32.7	83	28.1	0	1	270	0.00	30.363 
01:20	32.7	32.7	32.7	83	28.1	0	0	---	0.00	30.363 
01:25	32.7	32.7	32.7	83	28.1	0	1	270	0.00	30.363 
01:30	32.8	32.8	32.8	83	28.2	0	1	270	0.00	30.365 
01:35	32.8	32.8	32.8	83	28.2	0	0	---	0.00	30.365 
01:40	32.7	32.7	32.7	83	28.1	0	0	---	0.00	30.365 
01:45	32.7	32.7	32.7	83	28.1	0	1	270	0.00	30.364 
01:50	32.7	32.7	32.7	83	28.1	0	0	---	0.00	30.364 
01:55	32.5	32.5	32.5	83	27.9	0	1	270	0.00	30.364 
02:00	32.5	32.5	32.5	83	27.9	0	0	---	0.00	30.363 
02:05	32.4	32.4	32.4	83	27.8	0	0	---	0.00	30.363 
02:10	32.4	32.4	32.4	83	27.8	0	0	---	0.00	30.363 
02:15	32.1	32.1	32.1	83	27.5	0	0	---	0.00	30.357 
02:20	31.9	31.9	31.9	84	27.6	0	0	---	0.00	30.357 
02:25	31.6	31.6	31.6	84	27.3	0	0	---	0.00	30.357 
02:30	31.5	31.5	31.5	84	27.2	0	0	---	0.00	30.352 
02:35	31.2	31.2	31.2	84	26.9	0	0	---	0.00	30.352 
02:40	30.7	30.7	30.7	84	26.4	0	0	---	0.00	30.352 
02:45	30.4	30.4	30.4	85	26.4	0	0	---	0.00	30.361 
02:50	30.1	30.1	30.1	85	26.1	0	0	---	0.00	30.361 
02:55	29.8	29.8	29.8	86	26.1	0	0	---	0.00	30.361 
03:00	29.7	29.7	29.7	87	26.3	0	0	---	0.00	30.367 
03:05	29.5	29.5	29.5	87	26.1	0	0	---	0.00	30.367 
03:10	29.4	29.4	29.4	87	26.0	0	0	---	0.00	30.367 
03:15	29.4	29.4	29.4	88	26.3	0	0	---	0.00	30.375 
03:20	29.4	29.4	29.4	88	26.3	0	1	270	0.00	30.375 
03:25	29.5	29.5	29.5	88	26.4	0	1	270	0.00	30.375 
03:30	29.7	29.7	29.7	88	26.6	0	1	270	0.00	30.377 
03:35	29.7	29.7	29.7	88	26.6	0	1	270	0.00	30.377 
03:40	29.7	29.7	29.7	88	26.6	0	1	270	0.00	30.377 
03:45	29.5	29.5	29.5	88	26.4	0	1	270	0.00	30.377 
03:50	29.4	29.4	29.4	88	26.3	0	2	270	0.00	30.377 
03:55	29.3	29.3	29.3	88	26.2	0	1	270	0.00	30.377 
04:00	29.3	29.3	29.3	88	26.2	0	1	270	0.00	30.381 
04:05	29.3	29.3	29.3	88	26.2	0	2	270	0.00	30.381 
04:10	29.1	29.1	29.1	88	26.0	0	2	270	0.00	30.381 
04:15	29.1	29.1	29.1	88	26.0	0	1	270	0.00	30.377 
04:20	29.0	29.0	29.0	88	25.9	0	1	270	0.00	30.377 
04:25	28.8	28.8	28.8	88	25.7	0	0	---	0.00	30.377 
04:30	28.8	28.8	28.8	88	25.7	0	0	---	0.00	30.369 
04:35	28.7	28.7	28.7	88	25.6	0	0	---	0.00	30.369 
04:40	28.5	28.5	28.5	89	25.7	0	0	---	0.00	30.369 
04:45	28.4	28.4	28.4	89	25.6	0	1	270	0.00	30.365 
04:50	28.2	28.2	28.2	89	25.4	0	0	---	0.00	30.365 
04:55	28.1	28.1	28.1	89	25.3	0	0	---	0.00	30.365 
05:00	27.9	27.9	27.9	89	25.1	0	0	---	0.00	30.369 
05:05	27.8	27.8	27.8	89	25.0	0	1	270	0.00	30.369 
05:10	27.6	27.6	27.6	89	24.8	0	0	---	0.00	30.369 
05:15	27.6	27.6	27.6	90	25.1	0	0	---	0.00	30.380 
05:20	27.5	27.5	27.5	90	25.0	0	0	---	0.00	30.380 
05:25	27.5	27.5	27.5	90	25.0	0	0	---	0.00	30.380 
05:30	27.5	27.5	27.5	90	25.0	0	0	---	0.00	30.388 
05:35	27.5	27.5	27.5	91	25.2	0	1	270	0.00	30.388 
05:40	27.5	27.5	27.5	91	25.2	0	0	---	0.00	30.388 
05:45	27.6	27.6	27.6	91	25.3	0	0	---	0.00	30.393 
05:50	27.5	27.5	27.5	91	25.2	0	0	---	0.00	30.393 
05:55	27.5	27.5	27.5	91	25.2	0	0	---	0.00	30.393 
06:00	27.3	27.3	27.3	91	25.0	0	0	---	0.00	30.404 
06:05	27.2	27.2	27.2	91	24.9	0	0	---	0.00	30.404 
06:10	27.0	27.0	27.0	91	24.7	0	0	---	0.00	30.404 
06:15	26.9	26.9	26.9	91	24.6	0	0	---	0.00	30.397 
06:20	26.7	26.7	26.7	91	24.4	0	0	---	0.00	30.397 
06:25	26.6	26.6	26.6	91	24.3	0	0	---	0.00	30.397 
06:30	26.6	26.6	26.6	91	24.3	0	0	---	0.00	30.405 
06:35	26.4	26.4	26.4	91	24.1	0	0	---	0.00	30.405 
06:40	26.3	26.3	26.3	91	24.0	0	0	---	0.00	30.405 
06:45	26.1	26.1	26.1	91	23.8	0	0	---	0.00	30.411 
06:50	26.0	26.0	26.0	91	23.7	0	0	---	0.00	30.411 
06:55	25.8	25.8	25.8	91	23.5	0	0	---	0.00	30.411 
07:00	25.7	25.7	25.7	91	23.4	0	0	---	0.00	30.412 
07:05	25.6	25.6	25.6	92	23.6	0	0	---	0.00	30.412 
07:10	25.4	25.4	25.4	92	23.4	0	0	---	0.00	30.412 
07:15	25.4	25.4	25.4	92	23.4	0	0	---	0.00	30.415 
07:20	25.3	25.3	25.3	92	23.3	0	0	---	0.00	30.415 
07:25	25.1	25.1	25.1	92	23.1	0	0	---	0.00	30.415 
07:30	24.8	24.8	24.8	92	22.8	0	0	---	0.00	30.415 
07:35	24.7	24.7	24.7	92	22.7	0	0	---	0.00	30.415 
07:40	24.5	24.5	24.5	92	22.5	0	0	---	0.00	30.415 
07:45	24.4	24.4	24.4	92	22.4	0	0	---	0.00	30.416 
07:50	24.4	24.4	24.4	92	22.4	0	0	---	0.00	30.416 
07:55	24.1	24.1	24.1	92	22.1	0	0	---	0.00	30.416 
08:00	23.9	23.9	23.9	92	21.9	0	0	---	0.00	30.414 
08:05	24.1	24.1	24.1	92	22.1	0	0	---	0.00	30.414 
08:10	24.1	24.1	24.1	92	22.1	0	0	---	0.00	30.414 
08:15	24.1	24.1	24.1	92	22.1	0	0	---	0.00	30.412 
08:20	23.9	23.9	23.9	92	21.9	0	0	---	0.00	30.412 
08:25	23.8	23.8	23.8	92	21.8	0	0	---	0.00	30.412 
08:30	23.8	23.8	23.8	92	21.8	0	0	---	0.00	30.412 
08:35	23.9	23.9	23.9	92	21.9	0	0	---	0.00	30.412 
08:40	24.1	24.1	24.1	92	22.1	0	0	---	0.00	30.412 
08:45	24.2	24.2	24.2	93	22.5	0	0	---	0.00	30.406 
08:50	24.4	24.4	24.4	93	22.7	0	0	---	0.00	30.406 
08:55	24.8	24.8	24.8	93	23.1	0	0	---	0.00	30.406 
09:00	25.3	25.3	25.3	93	23.6	0	0	---	0.00	30.417 
09:05	25.7	25.7	25.7	94	24.2	0	0	---	0.00	30.417 
09:10	26.3	26.3	26.3	94	24.8	0	1	270	0.00	30.417 
09:15	26.7	26.7	26.7	94	25.2	0	1	270	0.00	30.427 
09:20	27.3	27.3	27.3	95	26.1	0	2	270	0.00	30.427 
09:25	27.9	27.9	27.9	95	26.7	0	2	248	0.00	30.427 
09:30	28.5	28.5	28.5	95	27.3	0	2	248	0.00	30.430 
09:35	29.0	29.0	29.0	95	27.8	0	3	248	0.00	30.430 
09:40	29.4	29.4	29.4	94	27.9	0	1	248	0.00	30.430 
09:45	29.8	29.8	29.8	94	28.3	0	2	248	0.00	30.439 
09:50	30.1	30.1	30.1	93	28.3	0	2	248	0.00	30.439 
09:55	30.6	30.6	30.6	92	28.6	0	2	248	0.00	30.439 
10:00	30.9	30.9	30.9	91	28.6	0	2	248	0.00	30.446 
10:05	31.5	31.5	31.5	89	28.6	0	2	270	0.00	30.446 
10:10	32.1	32.1	32.1	88	29.0	0	2	270	0.00	30.446 
10:15	32.5	32.5	32.5	86	28.8	0	1	270	0.00	30.453 
10:20	32.8	32.8	32.8	84	28.5	1	3	292	0.00	30.453 
10:25	33.2	33.2	33.2	82	28.3	1	3	292	0.00	30.453 
10:30	33.5	33.5	33.5	81	28.3	1	2	315	0.00	30.454 
10:35	33.8	33.8	33.8	81	28.6	0	1	248	0.00	30.454 
10:40	34.1	34.1	34.1	79	28.3	1	5	248	0.00	30.454 
10:45	34.4	34.4	34.4	78	28.3	1	2	248	0.00	30.453 
10:50	34.6	34.6	34.6	76	27.8	2	5	248	0.00	30.453 
10:55	34.9	34.9	34.9	76	28.1	1	4	248	0.00	30.453 
11:00	35.2	35.2	35.2	75	28.1	1	5	270	0.00	30.452 
11:05	35.5	35.5	35.5	74	28.0	1	3	338	0.00	30.452 
11:10	35.8	35.8	35.8	75	28.7	0	2	315	0.00	30.452 
11:15	35.9	35.9	35.9	74	28.4	1	4	248	0.00	30.451 
11:20	36.0	36.0	36.0	73	28.2	1	4	270	0.00	30.451 
11:25	36.3	36.3	36.3	73	28.5	1	3	270	0.00	30.451 
11:30	36.5	36.5	36.5	72	28.3	1	3	248	0.00	30.449 
11:35	36.6	36.6	36.6	71	28.1	1	3	248	0.00	30.449 
11:40	36.6	36.6	36.6	70	27.8	1	4	270	0.00	30.449 
11:45	36.9	36.9	36.9	71	28.4	1	4	248	0.00	30.456 
11:50	37.0	37.0	37.0	70	28.1	1	5	270	0.00	30.456 
11:55	37.0	37.0	37.0	71	28.5	1	3	248	0.00	30.456 
12:00	37.0	37.0	37.0	70	28.1	2	5	248	0.00	30.453 
12:05	37.3	37.3	37.3	71	28.8	1	3	248	0.00	30.453 
12:10	37.6	37.6	37.6	68	28.0	1	4	315	0.00	30.453 
12:15	37.8	37.8	37.8	67	27.8	1	4	338	0.00	30.450 
12:20	37.8	37.8	37.8	68	28.2	1	3	0	0.00	30.450 
12:25	37.5	37.5	37.5	68	27.9	1	5	270	0.00	30.450 
12:30	37.8	37.8	37.8	68	28.2	1	4	338	0.00	30.441 
12:35	37.8	37.8	37.8	68	28.2	1	4	0	0.00	30.441 
12:40	37.9	37.9	37.9	68	28.3	1	5	248	0.00	30.441 
12:45	38.2	38.2	38.2	68	28.6	1	4	338	0.00	30.433 
12:50	38.5	38.5	38.5	69	29.2	1	3	270	0.00	30.433 
12:55	38.6	38.6	38.6	67	28.6	1	3	338	0.00	30.433 
13:00	38.9	38.9	38.9	66	28.5	1	3	248	0.00	30.424 
13:05	39.1	39.1	39.1	62	27.2	1	3	248	0.00	30.424 
13:10	39.2	39.2	39.2	64	28.1	1	2	315	0.00	30.424 
13:15	39.2	39.2	39.2	63	27.7	1	2	315	0.00	30.417 
13:20	39.3	39.3	39.3	64	28.2	1	4	315	0.00	30.417 
13:25	39.3	39.3	39.3	63	27.8	1	5	248	0.00	30.417 
13:30	39.6	39.6	39.6	63	28.1	1	5	248	0.00	30.414 
13:35	39.8	39.8	39.8	62	27.9	1	2	338	0.00	30.414 
13:40	39.9	39.9	39.9	62	28.0	1	4	248	0.00	30.414 
13:45	39.9	39.9	39.9	61	27.6	1	4	270	0.00	30.406 
13:50	40.1	40.1	40.1	60	27.3	1	3	315	0.00	30.406 
13:55	40.1	40.1	40.1	60	27.3	1	3	292	0.00	30.406 
14:00	40.2	40.2	40.2	61	27.8	0	2	315	0.00	30.404 
14:05	40.3	40.3	40.3	59	27.1	1	2	292	0.00	30.404 
14:10	40.5	40.5	40.5	58	26.9	1	2	248	0.00	30.404 
14:15	40.8	40.8	40.8	58	27.2	1	4	248	0.00	30.399 
14:20	40.6	40.6	40.6	59	27.4	1	3	248	0.00	30.399 
14:25	40.8	40.8	40.8	58	27.2	1	2	248	0.00	30.399 
14:30	40.8	40.8	40.8	56	26.3	1	4	248	0.00	30.391 
14:35	40.8	40.8	40.8	54	25.5	1	4	248	0.00	30.391 
14:40	40.9	40.9	40.9	55	26.0	0	1	270	0.00	30.391 
14:45	40.8	40.8	40.8	56	26.3	0	2	315	0.00	30.400 
14:50	41.2	41.2	41.2	56	26.7	1	3	315	0.00	30.400 
14:55	41.5	41.5	41.5	56	27.0	1	3	248	0.00	30.400 
15:00	41.5	41.5	41.5	54	26.1	1	5	248	0.00	30.402 
15:05	41.5	41.5	41.5	55	26.6	2	4	248	0.00	30.402 
15:10	41.6	41.6	41.6	56	27.1	1	3	248	0.00	30.402 
15:15	41.8	41.8	41.8	54	26.4	1	4	248	0.00	30.404 
15:20	41.8	41.8	41.8	53	25.9	1	4	248	0.00	30.404 
15:25	41.8	41.8	41.8	54	26.4	0	3	270	0.00	30.404 
15:30	41.9	41.9	41.9	54	26.5	0	3	248	0.00	30.400 
15:35	42.3	42.3	42.3	53	26.4	1	5	248	0.00	30.400 
15:40	42.6	42.6	42.6	53	26.7	0	2	248	0.00	30.400 
15:45	42.3	42.3	42.3	52	25.9	1	3	248	0.00	30.395 
15:50	42.3	42.3	42.3	52	25.9	1	3	248	0.00	30.395 
15:55	42.2	42.2	42.2	52	25.9	2	4	248	0.00	30.395 
16:00	41.9	41.9	41.9	53	26.0	1	4	248	0.00	30.401 
16:05	41.8	41.8	41.8	52	25.5	1	4	248	0.00	30.401 
16:10	41.6	41.6	41.6	52	25.3	1	3	248	0.00	30.401 
16:15	41.3	41.3	41.3	52	25.0	0	2	248	0.00	30.402 
16:20	41.2	41.2	41.2	53	25.4	0	2	225	0.00	30.402 
16:25	41.1	41.1	41.1	53	25.3	0	2	225	0.00	30.402 
16:30	40.9	40.9	40.9	54	25.6	0	3	248	0.00	30.399 
16:35	40.8	40.8	40.8	54	25.5	2	5	248	0.00	30.399 
16:40	40.8	40.8	40.8	54	25.5	1	3	248	0.00	30.399 
16:45	40.6	40.6	40.6	54	25.3	1	3	248	0.00	30.400 
16:50	40.5	40.5	40.5	55	25.6	1	4	248	0.00	30.400 
16:55	40.2	40.2	40.2	55	25.3	1	3	248	0.00	30.400 
17:00	39.8	39.8	39.8	56	25.4	0	1	270	0.00	30.401 
17:05	39.5	39.5	39.5	56	25.1	0	1	270	0.00	30.401 
17:10	39.2	39.2	39.2	57	25.3	0	0	---	0.00	30.401 
17:15	38.8	38.8	38.8	57	24.9	0	0	---	0.00	30.399 
17:20	38.3	38.3	38.3	58	24.8	0	0	---	0.00	30.399 
17:25	37.9	37.9	37.9	59	24.9	0	0	---	0.00	30.399 
17:30	37.5	37.5	37.5	60	24.9	0	0	---	0.00	30.405 
17:35	36.9	36.9	36.9	61	24.7	0	0	---	0.00	30.405 
17:40	36.5	36.5	36.5	63	25.1	0	0	---	0.00	30.405 
17:45	36.0	36.0	36.0	63	24.6	0	0	---	0.00	30.412 
17:50	35.6	35.6	35.6	64	24.6	0	0	---	0.00	30.412 
17:55	35.2	35.2	35.2	65	24.6	0	0	---	0.00	30.412 
18:00	34.7	34.7	34.7	66	24.5	0	0	---	0.00	30.413 
18:05	34.3	34.3	34.3	67	24.5	0	0	---	0.00	30.413 
18:10	34.0	34.0	34.0	69	24.9	0	0	---	0.00	30.413 
18:15	33.5	33.5	33.5	69	24.4	0	0	---	0.00	30.420 
18:20	33.2	33.2	33.2	70	24.5	0	0	---	0.00	30.420 
18:25	32.8	32.8	32.8	72	24.8	0	0	---	0.00	30.420 
18:30	32.5	32.5	32.5	72	24.5	0	0	---	0.00	30.414 
18:35	32.2	32.2	32.2	73	24.5	0	0	---	0.00	30.414 
18:40	31.9	31.9	31.9	73	24.2	0	0	---	0.00	30.414 
18:45	31.8	31.8	31.8	74	24.5	0	0	---	0.00	30.419 
18:50	31.8	31.8	31.8	74	24.5	0	0	---	0.00	30.419 
18:55	31.6	31.6	31.6	74	24.3	0	0	---	0.00	30.419 
19:00	31.3	31.3	31.3	75	24.3	0	0	---	0.00	30.421 
19:05	31.0	31.0	31.0	75	24.0	0	0	---	0.00	30.421 
19:10	30.9	30.9	30.9	76	24.2	0	0	---	0.00	30.421 
19:15	30.7	30.7	30.7	77	24.4	0	0	---	0.00	30.427 
19:20	30.4	30.4	30.4	77	24.1	0	0	---	0.00	30.427 
19:25	30.1	30.1	30.1	78	24.1	0	0	---	0.00	30.427 
19:30	30.0	30.0	30.0	78	24.0	0	0	---	0.00	30.427 
19:35	29.8	29.8	29.8	79	24.1	0	0	---	0.00	30.427 
19:40	29.7	29.7	29.7	79	24.0	0	0	---	0.00	30.427 
19:45	29.5	29.5	29.5	79	23.8	0	0	---	0.00	30.432 
19:50	29.4	29.4	29.4	80	24.0	0	0	---	0.00	30.432 
19:55	29.1	29.1	29.1	80	23.7	0	0	---	0.00	30.432 
20:00	29.1	29.1	29.1	82	24.3	0	0	---	0.00	30.436 
20:05	29.1	29.1	29.1	82	24.3	0	0	---	0.00	30.436 
20:10	29.0	29.0	29.0	82	24.2	0	0	---	0.00	30.436 
20:15	28.8	28.8	28.8	83	24.3	0	0	---	0.00	30.434 
20:20	28.7	28.7	28.7	83	24.2	0	0	---	0.00	30.434 
20:25	28.7	28.7	28.7	83	24.2	0	0	---	0.00	30.434 
20:30	28.7	28.7	28.7	84	24.5	0	0	---	0.00	30.437 
20:35	28.8	28.8	28.8	84	24.6	0	0	---	0.00	30.437 
20:40	28.8	28.8	28.8	84	24.6	0	0	---	0.00	30.437 
20:45	29.1	29.1	29.1	83	24.6	0	0	---	0.00	30.442 
20:50	29.5	29.5	29.5	82	24.7	0	1	270	0.00	30.442 
20:55	30.1	30.1	30.1	81	25.0	0	1	270	0.00	30.442 
21:00	30.7	30.7	30.7	80	25.3	0	2	270	0.00	30.446 
21:05	31.2	31.2	31.2	78	25.2	0	0	---	0.00	30.446 
21:10	31.3	31.3	31.3	78	25.3	0	0	---	0.00	30.446 
21:15	31.3	31.3	31.3	77	24.9	0	1	270	0.00	30.438 
21:20	31.2	31.2	31.2	77	24.8	0	1	270	0.00	30.438 
21:25	31.2	31.2	31.2	77	24.8	0	0	---	0.00	30.438 
21:30	31.2	31.2	31.2	77	24.8	0	2	270	0.00	30.436 
21:35	31.3	31.3	31.3	77	24.9	0	2	270	0.00	30.436 
21:40	31.6	31.6	31.6	77	25.2	0	1	248	0.00	30.436 
21:45	31.8	31.8	31.8	76	25.1	0	1	248	0.00	30.437 
21:50	31.8	31.8	31.8	76	25.1	0	2	248	0.00	30.437 
21:55	31.6	31.6	31.6	76	24.9	0	1	248	0.00	30.437 
22:00	31.5	31.5	31.5	76	24.8	0	0	---	0.00	30.435 
22:05	31.0	31.0	31.0	76	24.3	0	0	---	0.00	30.435 
22:10	30.7	30.7	30.7	77	24.4	0	0	---	0.00	30.435 
22:15	30.1	30.1	30.1	77	23.8	0	0	---	0.00	30.425 
22:20	29.7	29.7	29.7	78	23.7	0	0	---	0.00	30.425 
22:25	29.3	29.3	29.3	80	23.9	0	0	---	0.00	30.425 
22:30	29.0	29.0	29.0	80	23.6	0	0	---	0.00	30.419 
22:35	28.5	28.5	28.5	80	23.1	0	0	---	0.00	30.419 
22:40	28.1	28.1	28.1	81	23.0	0	0	---	0.00	30.419 
22:45	27.8	27.8	27.8	82	23.0	0	0	---	0.00	30.410 
22:50	27.5	27.5	27.5	83	23.0	0	0	---	0.00	30.410 
22:55	27.5	27.5	27.5	84	23.3	0	0	---	0.00	30.410 
23:00	27.3	27.3	27.3	84	23.1	0	0	---	0.00	30.407 
23:05	27.2	27.2	27.2	84	23.0	0	0	---	0.00	30.407 
23:10	26.9	26.9	26.9	84	22.7	0	0	---	0.00	30.407 
23:15	26.7	26.7	26.7	84	22.5	0	0	---	0.00	30.406 
23:20	26.6	26.6	26.6	84	22.4	0	0	---	0.00	30.406 
23:25	26.4	26.4	26.4	85	22.5	0	0	---	0.00	30.406 
23:30	26.1	26.1	26.1	85	22.2	0	0	---	0.00	30.399 
23:35	26.0	26.0	26.0	85	22.1	0	0	---	0.00	30.399 
23:40	25.8	25.8	25.8	85	21.9	0	0	---	0.00	30.399 
23:45	25.7	25.7	25.7	86	22.1	0	0	---	0.00	30.402 
23:50	25.6	25.6	25.6	86	22.0	0	0	---	0.00	30.402 
23:55	25.6	25.6	25.6	87	22.3	0	0	---	0.00	30.402 

CoCoRaHS
IN-AL-39
A2 Web Hosting
Creative Commons License
GoDaddy
Look for:

loaded 2017-12-12 07:30:55 • last modified 2010-11-18 10:43:29
Privacy PolicyDisclaimer
• wx.awcolley.com is powered by PmWiki v.2002016 •
• all content (unless otherwise noted) © 2017 A W Colley